Time;durP1;ratioP1;P1;durP2;ratioP2;P2;SDS_P1;SDS_P2;PMS_P1;PMS_P2;Temp;Humidity;BMP_temperature;BMP_pressure;BME280_temperature;BME280_humidity;BME280_pressure;Samples;Min_cycle;Max_cycle;Signal;HPM_P1;HPM_P2
2022/05/31 01:00:03;;;;;;;;;;;;;;;;;;12549663;28;20365;-80
2022/05/31 01:06:05;;;;;;;;;;;;;;;;;;12548339;28;19919;-81
2022/05/31 01:12:06;;;;;;;;;;;;;;;;;;12547938;28;20357;-80
2022/05/31 01:18:26;;;;;;;;;;;;;;;;;;12533679;28;19921;-81
2022/05/31 01:24:46;;;;;;;;;;;;;;;;;;12548048;28;19920;-81
2022/05/31 01:30:48;;;;;;;;;;;;;;;;;;12531149;28;19912;-81
2022/05/31 01:36:49;;;;;;;;;;;;;;;;;;12513440;28;20289;-80
2022/05/31 01:42:51;;;;;;;;;;;;;;;;;;12513704;28;19909;-81
2022/05/31 01:48:52;;;;;;;;;;;;;;;;;;12536324;28;20110;-81
2022/05/31 01:54:54;;;;;;;;;;;;;;;;;;12528320;28;19909;-81
2022/05/31 02:00:56;;;;;;;;;;;;;;;;;;12545584;28;19925;-81
2022/05/31 02:07:12;;;;;;;;;;;;;;;;;;12544582;28;19912;-81
2022/05/31 02:13:16;;;;;;;;;;;;;;;;;;12544335;28;20377;-80
2022/05/31 02:19:25;;;;;;;;;;;;;;;;;;12528082;28;20366;-81
2022/05/31 02:25:34;;;;;;;;;;;;;;;;;;12544123;28;19928;-81
2022/05/31 02:31:36;;;;;;;;;;;;;;;;;;12547487;28;19917;-81
2022/05/31 02:37:38;;;;;;;;;;;;;;;;;;12570715;28;20285;-81
2022/05/31 02:43:39;;;;;;;;;;;;;;;;;;12555244;28;19909;-81
2022/05/31 02:49:41;;;;;;;;;;;;;;;;;;12539655;28;19908;-81
2022/05/31 02:55:43;;;;;;;;;;;;;;;;;;12540156;28;19909;-81
2022/05/31 03:02:03;;;;;;;;;;;;;;;;;;12568585;28;19921;-81
2022/05/31 03:08:39;;;;;;;;;;;;;;;;;;12515542;28;20329;-81
2022/05/31 03:14:49;;;;;;;;;;;;;;;;;;12549192;28;20305;-81
2022/05/31 03:20:51;;;;;;;;;;;;;;;;;;12566341;28;19924;-81
2022/05/31 03:26:52;;;;;;;;;;;;;;;;;;12564263;28;19917;-81
2022/05/31 03:32:54;;;;;;;;;;;;;;;;;;12551751;28;19919;-81
2022/05/31 03:38:55;;;;;;;;;;;;;;;;;;12551590;28;19924;-81
2022/05/31 03:44:57;;;;;;;;;;;;;;;;;;12533498;28;19908;-81
2022/05/31 03:51:18;;;;;;;;;;;;;;;;;;12533781;28;19909;-81
2022/05/31 03:57:19;;;;;;;;;;;;;;;;;;12535551;28;19917;-81
2022/05/31 04:03:27;;;;;;;;;;;;;;;;;;12516564;28;19916;-81
2022/05/31 04:09:28;;;;;;;;;;;;;;;;;;12530071;28;19909;-80
2022/05/31 04:15:31;;;;;;;;;;;;;;;;;;12530115;28;20297;-80
2022/05/31 04:21:34;;;;;;;;;;;;;;;;;;12513264;28;19920;-80
2022/05/31 04:27:36;;;;;;;;;;;;;;;;;;12531665;28;19921;-79
2022/05/31 04:34:10;;;;;;;;;;;;;;;;;;12524391;28;19913;-81
2022/05/31 04:40:12;;;;;;;;;;;;;;;;;;12512796;28;19917;-80
2022/05/31 04:46:16;;;;;;;;;;;;;;;;;;12547412;28;20327;-81
2022/05/31 04:52:53;;;;;;;;;;;;;;;;;;12495323;28;20293;-80
2022/05/31 04:58:54;;;;;;;;;;;;;;;;;;12512710;28;19916;-80
2022/05/31 05:04:56;;;;;;;;;;;;;;;;;;12511538;28;19924;-81
2022/05/31 05:11:21;;;;;;;;;;;;;;;;;;12541295;28;20289;-81
2022/05/31 05:17:52;;;;;;;;;;;;;;;;;;12527848;28;19917;-80
2022/05/31 05:23:53;;;;;;;;;;;;;;;;;;12526765;28;20396;-80
2022/05/31 05:36:28;;;;;;;;;;;;;;;;;;12529965;28;19916;-80
2022/05/31 05:42:30;;;;;;;;;;;;;;;;;;12491291;28;19909;-81
2022/05/31 05:48:55;;;;;;;;;;;;;;;;;;12513008;28;19908;-80
2022/05/31 05:54:57;;;;;;;;;;;;;;;;;;12535233;28;19916;-81
2022/05/31 06:01:34;;;;;;;;;;;;;;;;;;12487226;28;19928;-79
2022/05/31 06:07:45;;;;;;;;;;;;;;;;;;12501608;28;19918;-80
2022/05/31 06:13:48;;;;;;;;;;;;;;;;;;12516675;28;19913;-81
2022/05/31 06:19:51;;;;;;;;;;;;;;;;;;12536013;28;20283;-84
2022/05/31 06:25:53;;;;;;;;;;;;;;;;;;12443735;28;19917;-83
2022/05/31 06:32:20;;;;;;;;;;;;;;;;;;12414269;28;19925;-83
2022/05/31 06:38:23;;;;;;;;;;;;;;;;;;12424587;28;19917;-80
2022/05/31 06:44:24;;;;;;;;;;;;;;;;;;12444515;28;19910;-81
2022/05/31 06:51:04;;;;;;;;;;;;;;;;;;12454589;28;20367;-81
2022/05/31 06:57:05;;;;;;;;;;;;;;;;;;12454403;28;19917;-82
2022/05/31 07:03:12;;;;;;;;;;;;;;;;;;12444679;28;20398;-83
2022/05/31 07:09:15;;;;;;;;;;;;;;;;;;12444372;28;19917;-84
2022/05/31 07:15:17;;;;;;;;;;;;;;;;;;12446954;28;20283;-84
2022/05/31 07:21:39;;;;;;;;;;;;;;;;;;12429019;28;20321;-85
2022/05/31 07:27:42;;;;;;;;;;;;;;;;;;12441845;28;19933;-85
2022/05/31 07:33:44;;;;;;;;;;;;;;;;;;12468595;28;19913;-83
2022/05/31 07:39:48;;;;;;;;;;;;;;;;;;12447063;28;19925;-83
2022/05/31 07:45:52;;;;;;;;;;;;;;;;;;12465957;28;19921;-83
2022/05/31 07:51:53;;;;;;;;;;;;;;;;;;12449432;28;19909;-84
2022/05/31 08:04:37;;;;;;;;;;;;;;;;;;12448897;28;19917;-83
2022/05/31 08:10:39;;;;;;;;;;;;;;;;;;12445894;28;19916;-83
2022/05/31 08:16:40;;;;;;;;;;;;;;;;;;12451430;28;19913;-83
2022/05/31 08:22:42;;;;;;;;;;;;;;;;;;12445502;28;19924;-83
2022/05/31 08:28:43;;;;;;;;;;;;;;;;;;12539721;28;19909;-85
2022/05/31 08:34:45;;;;;;;;;;;;;;;;;;12544993;28;20285;-84
2022/05/31 08:40:46;;;;;;;;;;;;;;;;;;12535967;28;20305;-83
2022/05/31 08:46:48;;;;;;;;;;;;;;;;;;12539772;28;19909;-81
2022/05/31 08:52:49;;;;;;;;;;;;;;;;;;12544346;28;19916;-79
2022/05/31 08:58:51;;;;;;;;;;;;;;;;;;12524337;28;19917;-81
2022/05/31 09:04:52;;;;;;;;;;;;;;;;;;12520709;28;19919;-80
2022/05/31 09:10:54;;;;;;;;;;;;;;;;;;12519198;28;19916;-82
2022/05/31 09:16:55;;;;;;;;;;;;;;;;;;12531365;28;19917;-81
2022/05/31 09:22:57;;;;;;;;;;;;;;;;;;12534698;28;19920;-82
2022/05/31 09:28:58;;;;;;;;;;;;;;;;;;12530270;28;19908;-82
2022/05/31 09:35:00;;;;;;;;;;;;;;;;;;12504148;28;19913;-82
2022/05/31 09:41:06;;;;;;;;;;;;;;;;;;12517448;28;19917;-82
2022/05/31 09:47:10;;;;;;;;;;;;;;;;;;12531383;28;19917;-80
2022/05/31 09:59:35;;;;;;;;;;;;;;;;;;12518922;28;19920;-79
2022/05/31 10:06:31;;;;;;;;;;;;;;;;;;12525689;28;19913;-79
2022/05/31 10:12:34;;;;;;;;;;;;;;;;;;12542146;28;19920;-80
2022/05/31 10:18:39;;;;;;;;;;;;;;;;;;12529049;28;19924;-80
2022/05/31 10:24:41;;;;;;;;;;;;;;;;;;12536853;28;19971;-80
2022/05/31 10:31:12;;;;;;;;;;;;;;;;;;12491390;28;20282;-79
2022/05/31 10:37:14;;;;;;;;;;;;;;;;;;12527526;28;19928;-79
2022/05/31 10:43:16;;;;;;;;;;;;;;;;;;12527743;28;19908;-80
2022/05/31 10:49:18;;;;;;;;;;;;;;;;;;12525278;28;19909;-80
2022/05/31 10:55:19;;;;;;;;;;;;;;;;;;12534791;28;19909;-82
2022/05/31 11:01:21;;;;;;;;;;;;;;;;;;12536211;28;19920;-79
2022/05/31 11:07:22;;;;;;;;;;;;;;;;;;12515562;28;19931;-83
2022/05/31 11:13:24;;;;;;;;;;;;;;;;;;12515996;28;20361;-83
2022/05/31 11:19:29;;;;;;;;;;;;;;;;;;12541425;28;19920;-83
2022/05/31 11:25:30;;;;;;;;;;;;;;;;;;12495555;28;19925;-78
2022/05/31 11:31:32;;;;;;;;;;;;;;;;;;12526880;28;19913;-80
2022/05/31 11:37:34;;;;;;;;;;;;;;;;;;12515575;28;19921;-80
2022/05/31 11:43:35;;;;;;;;;;;;;;;;;;12548899;28;20369;-80
2022/05/31 11:49:37;;;;;;;;;;;;;;;;;;12549361;28;19920;-80
2022/05/31 11:55:39;;;;;;;;;;;;;;;;;;12548988;28;20383;-79
2022/05/31 12:01:40;;;;;;;;;;;;;;;;;;12530315;28;19921;-79
2022/05/31 12:07:42;;;;;;;;;;;;;;;;;;12530205;28;20400;-79
2022/05/31 12:13:46;;;;;;;;;;;;;;;;;;12547866;28;19908;-79
2022/05/31 12:19:48;;;;;;;;;;;;;;;;;;12547504;28;19917;-79
2022/05/31 12:25:49;;;;;;;;;;;;;;;;;;12547255;28;19924;-78
2022/05/31 12:31:51;;;;;;;;;;;;;;;;;;12528462;28;19913;-78
2022/05/31 12:37:53;;;;;;;;;;;;;;;;;;12546493;28;19917;-78
2022/05/31 12:43:55;;;;;;;;;;;;;;;;;;12547846;28;20373;-78
2022/05/31 12:49:56;;;;;;;;;;;;;;;;;;12511672;28;19919;-79
2022/05/31 12:55:58;;;;;;;;;;;;;;;;;;12528290;28;20376;-79
2022/05/31 13:02:00;;;;;;;;;;;;;;;;;;12527272;28;19920;-78
2022/05/31 13:08:02;;;;;;;;;;;;;;;;;;12510690;28;19932;-79
2022/05/31 13:20:24;;;;;;;;;;;;;;;;;;12545068;28;19923;-78
2022/05/31 13:26:25;;;;;;;;;;;;;;;;;;12544697;28;19917;-78
2022/05/31 13:32:26;;;;;;;;;;;;;;;;;;12544017;28;19921;-78
2022/05/31 13:38:29;;;;;;;;;;;;;;;;;;12526041;28;19916;-78
2022/05/31 13:44:30;;;;;;;;;;;;;;;;;;12543531;28;19916;-78
2022/05/31 13:50:32;;;;;;;;;;;;;;;;;;12526044;28;19909;-78
2022/05/31 13:56:33;;;;;;;;;;;;;;;;;;12544152;28;19909;-78
2022/05/31 14:03:00;;;;;;;;;;;;;;;;;;12525459;28;19924;-78
2022/05/31 14:09:01;;;;;;;;;;;;;;;;;;12509381;28;19909;-78
2022/05/31 14:15:03;;;;;;;;;;;;;;;;;;12543338;28;19916;-78
2022/05/31 14:21:04;;;;;;;;;;;;;;;;;;12543600;28;19916;-78
2022/05/31 14:27:05;;;;;;;;;;;;;;;;;;12525797;28;19924;-78
2022/05/31 14:33:07;;;;;;;;;;;;;;;;;;12524732;28;19917;-79
2022/05/31 14:39:08;;;;;;;;;;;;;;;;;;12542594;28;19921;-79
2022/05/31 14:45:10;;;;;;;;;;;;;;;;;;12524713;28;19924;-79
2022/05/31 14:51:11;;;;;;;;;;;;;;;;;;12508311;28;19913;-79
2022/05/31 14:57:13;;;;;;;;;;;;;;;;;;12547018;28;19919;-79
2022/05/31 15:03:14;;;;;;;;;;;;;;;;;;12533541;28;19919;-79
2022/05/31 15:09:16;;;;;;;;;;;;;;;;;;12550514;28;19909;-79
2022/05/31 15:21:38;;;;;;;;;;;;;;;;;;12532692;28;19928;-79
2022/05/31 15:27:39;;;;;;;;;;;;;;;;;;12550496;28;19924;-79
2022/05/31 15:33:41;;;;;;;;;;;;;;;;;;12532007;28;20366;-78
2022/05/31 15:39:42;;;;;;;;;;;;;;;;;;12549531;28;19988;-78
2022/05/31 15:45:44;;;;;;;;;;;;;;;;;;12549753;28;20280;-79
2022/05/31 15:51:46;;;;;;;;;;;;;;;;;;12548792;28;19914;-79
2022/05/31 15:57:47;;;;;;;;;;;;;;;;;;12514240;28;19921;-79
2022/05/31 16:03:49;;;;;;;;;;;;;;;;;;12530555;28;19913;-79
2022/05/31 16:09:50;;;;;;;;;;;;;;;;;;12529950;28;19919;-79
2022/05/31 16:15:52;;;;;;;;;;;;;;;;;;12547888;28;20373;-80
2022/05/31 16:21:53;;;;;;;;;;;;;;;;;;12513176;28;19924;-79
2022/05/31 16:27:54;;;;;;;;;;;;;;;;;;12547687;28;20289;-79
2022/05/31 16:33:56;;;;;;;;;;;;;;;;;;12530232;28;20452;-79
2022/05/31 16:46:18;;;;;;;;;;;;;;;;;;12547944;28;19908;-78
2022/05/31 16:52:20;;;;;;;;;;;;;;;;;;12529135;28;19909;-79
2022/05/31 16:58:21;;;;;;;;;;;;;;;;;;12528276;28;20400;-79
2022/05/31 17:04:23;;;;;;;;;;;;;;;;;;12545696;28;19912;-79
2022/05/31 17:16:45;;;;;;;;;;;;;;;;;;12544742;28;20357;-79
2022/05/31 17:22:46;;;;;;;;;;;;;;;;;;12526265;28;19917;-78
2022/05/31 17:28:48;;;;;;;;;;;;;;;;;;12527561;28;19916;-79
2022/05/31 17:34:49;;;;;;;;;;;;;;;;;;12526799;28;20250;-78
2022/05/31 17:40:51;;;;;;;;;;;;;;;;;;12526443;28;19924;-79
2022/05/31 17:46:52;;;;;;;;;;;;;;;;;;12526176;28;19932;-80
2022/05/31 17:52:54;;;;;;;;;;;;;;;;;;12543667;28;19909;-79
2022/05/31 17:58:57;;;;;;;;;;;;;;;;;;12526697;28;19917;-79
2022/05/31 18:04:58;;;;;;;;;;;;;;;;;;12525685;28;19920;-79
2022/05/31 18:11:00;;;;;;;;;;;;;;;;;;12525694;28;20395;-79
2022/05/31 18:17:01;;;;;;;;;;;;;;;;;;12543242;28;19909;-79
2022/05/31 18:23:02;;;;;;;;;;;;;;;;;;12543128;28;20313;-79
2022/05/31 18:35:24;;;;;;;;;;;;;;;;;;12552774;28;19919;-79
2022/05/31 18:41:26;;;;;;;;;;;;;;;;;;12552096;28;20122;-80
2022/05/31 18:47:27;;;;;;;;;;;;;;;;;;12534156;28;19916;-79
2022/05/31 18:53:29;;;;;;;;;;;;;;;;;;12551753;28;20431;-79
2022/05/31 18:59:30;;;;;;;;;;;;;;;;;;12535484;28;19954;-79
2022/05/31 19:05:32;;;;;;;;;;;;;;;;;;12533584;28;19912;-80
2022/05/31 19:11:33;;;;;;;;;;;;;;;;;;12551055;28;19916;-80
2022/05/31 19:17:35;;;;;;;;;;;;;;;;;;12532837;28;19920;-79
2022/05/31 19:23:36;;;;;;;;;;;;;;;;;;12516928;28;19917;-79
2022/05/31 19:29:38;;;;;;;;;;;;;;;;;;12531893;28;19919;-80
2022/05/31 19:35:39;;;;;;;;;;;;;;;;;;12549651;28;19913;-79
2022/05/31 19:41:41;;;;;;;;;;;;;;;;;;12514269;28;19917;-78
2022/05/31 19:47:42;;;;;;;;;;;;;;;;;;12514928;28;19909;-80
2022/05/31 19:53:43;;;;;;;;;;;;;;;;;;12531386;28;20281;-79
2022/05/31 19:59:45;;;;;;;;;;;;;;;;;;12549267;28;19917;-79
2022/05/31 20:05:46;;;;;;;;;;;;;;;;;;12548444;28;19919;-79
2022/05/31 20:11:48;;;;;;;;;;;;;;;;;;12548191;28;19909;-79
2022/05/31 20:17:59;;;;;;;;;;;;;;;;;;12547752;28;19999;-78
2022/05/31 20:24:02;;;;;;;;;;;;;;;;;;12547917;28;20064;-79
2022/05/31 20:30:04;;;;;;;;;;;;;;;;;;12529539;28;19908;-78
2022/05/31 20:36:05;;;;;;;;;;;;;;;;;;12547021;28;20388;-79
2022/05/31 20:42:06;;;;;;;;;;;;;;;;;;12529236;28;19928;-79
2022/05/31 20:48:09;;;;;;;;;;;;;;;;;;12528407;28;19916;-79
2022/05/31 20:54:12;;;;;;;;;;;;;;;;;;12545062;28;19909;-79
2022/05/31 21:00:14;;;;;;;;;;;;;;;;;;12528303;28;19916;-79
2022/05/31 21:06:16;;;;;;;;;;;;;;;;;;12545597;28;19913;-79
2022/05/31 21:12:18;;;;;;;;;;;;;;;;;;12527666;28;20305;-79
2022/05/31 21:18:20;;;;;;;;;;;;;;;;;;12527385;28;19917;-78
2022/05/31 21:24:21;;;;;;;;;;;;;;;;;;12545367;28;19923;-79
2022/05/31 21:30:23;;;;;;;;;;;;;;;;;;12545595;28;19917;-79
2022/05/31 21:36:24;;;;;;;;;;;;;;;;;;12544661;28;19920;-79
2022/05/31 21:42:26;;;;;;;;;;;;;;;;;;12510344;28;19936;-79
2022/05/31 21:48:28;;;;;;;;;;;;;;;;;;12526424;28;19916;-78
2022/05/31 21:54:29;;;;;;;;;;;;;;;;;;12544196;28;19908;-79
2022/05/31 22:00:31;;;;;;;;;;;;;;;;;;12526629;28;19916;-79
2022/05/31 22:06:35;;;;;;;;;;;;;;;;;;12531659;28;19913;-79
2022/05/31 22:12:37;;;;;;;;;;;;;;;;;;12553984;28;19919;-79
2022/05/31 22:18:38;;;;;;;;;;;;;;;;;;12535369;28;19924;-78
2022/05/31 22:31:00;;;;;;;;;;;;;;;;;;12535424;28;19957;-79
2022/05/31 22:37:02;;;;;;;;;;;;;;;;;;12518517;28;19913;-79
2022/05/31 22:43:03;;;;;;;;;;;;;;;;;;12552433;28;19917;-78
2022/05/31 22:49:05;;;;;;;;;;;;;;;;;;12534623;28;19909;-78
2022/05/31 22:55:06;;;;;;;;;;;;;;;;;;12534154;28;20365;-78
2022/05/31 23:01:07;;;;;;;;;;;;;;;;;;12553140;28;20273;-78
2022/05/31 23:07:09;;;;;;;;;;;;;;;;;;12551731;28;19913;-78
2022/05/31 23:13:10;;;;;;;;;;;;;;;;;;12551074;28;19912;-79
2022/05/31 23:19:12;;;;;;;;;;;;;;;;;;12515326;28;19921;-78
2022/05/31 23:25:14;;;;;;;;;;;;;;;;;;12550878;28;19927;-78
2022/05/31 23:31:15;;;;;;;;;;;;;;;;;;12551169;28;19909;-79
2022/05/31 23:37:17;;;;;;;;;;;;;;;;;;12549946;28;19920;-78
2022/05/31 23:43:20;;;;;;;;;;;;;;;;;;12549871;28;20010;-78
2022/05/31 23:49:22;;;;;;;;;;;;;;;;;;12549353;28;19916;-78
2022/05/31 23:55:23;;;;;;;;;;;;;;;;;;12531245;28;19916;-78
